Forest Heights, Oregon
Current Conditions -  °F | °C
As of 12:53 AM on Monday 20 Oct 2014 (Local Time) from KHIO Reporting Station
Light Rain Light Rain  
Wind Chill: 60°   Ceiling: 7000
Heat Index: 60°   Visibility: 9mi
Dew Point: 57°   Wind: 0mph
Humidity: 90%   Direction: NA
Pressure: 29.73"   Gusts: NA
Location:  45.5526°N, 122.821°W
Report Text: KHIO 200753Z AUTO 00000KT 9SM -RA FEW046 FEW055 OVC070 16/14 A2973 RMK AO2 RAB33 SLP066 P0002 T01560139 402220111 TSNO
Loading
Personal Weather Stations






























Interactive Weather Map
Tropical Storm Tracking
New forecast layout! Learn more

10-Day Weather Forecast

Advertisements
Track Severe Weather on mobile